Aérodrome :
LOGIN :

S'inscrire | Disclaimer

   EN    FR    IT 

 










Légende :    VFR   VFR Marginal   IFR   IFR Intensif   IFR Très Intensif
Visi : 
Plafond : 
>= 8 km
>= 3000ft
5 à 8 km
1000 à 3000 ft
1500m à 5 km
500 à 1000 ft
800 à 1500m
200 à 500 ft
< 800m
< 200 ft
Symboles :   Orages  Brouillard  Fortes neiges  Fortes précipitations  Vent > 20 kt
SIGMETs :   Divers  Orages  Givrage  Turbulence  Onde Orograph.  Cendres Volcan.







- Altitude de l'aérodrome : 122 ft
- Code IATA : TXL


EDDT - Berlin Tegel Int.

DERNIER METAR :
  • 201420Z 30005KT 250V360 CAVOK 26/09 Q1013 NOSIG

METARs EXPIRÉS :
  • 201350Z 32006KT 270V020 CAVOK 25/10 Q1014 NOSIG
  • 201320Z 33007KT 290V040 CAVOK 26/09 Q1014 NOSIG
  • 201250Z 26010KT 220V290 CAVOK 26/08 Q1014 NOSIG
  • 201220Z 30008KT 250V060 CAVOK 27/09 Q1014 NOSIG
  • 201150Z 31007KT 240V010 CAVOK 26/09 Q1014 NOSIG

TAF TAF EDDT
Valide du 20 à 12h jusqu'au 21 à 12h UTC


201100Z 2012/2112 31006KT CAVOK
BECMG 2016/2018 03004KT
BECMG 2105/2107 09007KT
Pas de NOTAMs connus pour ce terrain.



MET'MAP, la Météo Aéronautique d'un coup d'oeil ! - Copyright ORBIFLY Décembre 2007 - Disclaimer

ORBIFLY MET'MAP TEAM :

Programmation & Développement : Alexandra Zaïnal
Conception & Développement : Baudouin d'Aumeries
Co-Programmation & Développement : Marc-Olivier Méhu
Soutien technique & logistique : Manuel Goepfert

Contact : metmap@orbifly.com




SOURCES & CREDITS :

   NOAA